sensor_id;sensor_type;location;lat;lon;timestamp;temperature;humidity
20985;DHT22;10651;47.552;7.606;2023-06-19T17:02:40;30.70;99.90
20985;DHT22;10651;47.552;7.606;2023-06-19T17:05:06;29.20;99.90
20985;DHT22;10651;47.552;7.606;2023-06-19T17:07:31;29.20;99.90
20985;DHT22;10651;47.552;7.606;2023-06-19T17:09:57;29.10;99.90
20985;DHT22;10651;47.552;7.606;2023-06-19T17:12:23;29.00;99.90
20985;DHT22;10651;47.552;7.606;2023-06-19T17:14:49;29.00;99.90
20985;DHT22;10651;47.552;7.606;2023-06-19T17:17:14;29.00;99.90
20985;DHT22;10651;47.552;7.606;2023-06-19T17:19:40;28.80;99.90
20985;DHT22;10651;47.552;7.606;2023-06-19T17:34:22;28.60;99.90
20985;DHT22;10651;47.552;7.606;2023-06-19T17:39:14;27.40;99.90
20985;DHT22;10651;47.552;7.606;2023-06-19T17:41:40;27.40;99.90
20985;DHT22;10651;47.552;7.606;2023-06-19T17:44:06;27.40;99.90
20985;DHT22;10651;47.552;7.606;2023-06-19T17:46:32;27.50;99.90
20985;DHT22;10651;47.552;7.606;2023-06-19T17:48:57;27.30;99.90
20985;DHT22;10651;47.552;7.606;2023-06-19T17:51:23;27.20;99.90
20985;DHT22;10651;47.552;7.606;2023-06-19T17:53:50;27.20;99.90
20985;DHT22;10651;47.552;7.606;2023-06-19T17:56:17;27.10;99.90
20985;DHT22;10651;47.552;7.606;2023-06-19T17:58:43;27.10;99.90
20985;DHT22;10651;47.552;7.606;2023-06-19T18:01:09;27.00;99.90
20985;DHT22;10651;47.552;7.606;2023-06-19T18:03:34;27.00;99.90
20985;DHT22;10651;47.552;7.606;2023-06-19T18:06:00;26.90;99.90
20985;DHT22;10651;47.552;7.606;2023-06-19T18:08:26;26.90;99.90
20985;DHT22;10651;47.552;7.606;2023-06-19T18:10:51;27.00;99.90
20985;DHT22;10651;47.552;7.606;2023-06-19T18:13:17;27.00;99.90
20985;DHT22;10651;47.552;7.606;2023-06-19T18:15:43;27.00;99.90
20985;DHT22;10651;47.552;7.606;2023-06-19T18:18:08;27.20;99.90
20985;DHT22;10651;47.552;7.606;2023-06-19T18:20:34;27.40;99.90
20985;DHT22;10651;47.552;7.606;2023-06-19T18:23:00;27.40;99.90
20985;DHT22;10651;47.552;7.606;2023-06-19T18:25:26;27.40;99.90
20985;DHT22;10651;47.552;7.606;2023-06-19T18:27:52;27.40;99.90
20985;DHT22;10651;47.552;7.606;2023-06-19T18:30:17;27.40;99.90
20985;DHT22;10651;47.552;7.606;2023-06-19T18:32:43;27.40;99.90
20985;DHT22;10651;47.552;7.606;2023-06-19T18:35:09;27.30;99.90
20985;DHT22;10651;47.552;7.606;2023-06-19T18:37:34;27.30;99.90
20985;DHT22;10651;47.552;7.606;2023-06-19T18:40:00;27.30;99.90
20985;DHT22;10651;47.552;7.606;2023-06-19T18:42:26;27.40;99.90
20985;DHT22;10651;47.552;7.606;2023-06-19T18:44:54;27.30;99.90
20985;DHT22;10651;47.552;7.606;2023-06-19T18:47:20;27.20;99.90
20985;DHT22;10651;47.552;7.606;2023-06-19T18:49:46;27.10;99.90
20985;DHT22;10651;47.552;7.606;2023-06-19T18:52:12;26.90;99.90
20985;DHT22;10651;47.552;7.606;2023-06-19T18:54:37;26.70;99.90
20985;DHT22;10651;47.552;7.606;2023-06-19T18:57:03;26.60;99.90
20985;DHT22;10651;47.552;7.606;2023-06-19T19:01:55;26.50;99.90
20985;DHT22;10651;47.552;7.606;2023-06-19T19:04:21;26.30;99.90
20985;DHT22;10651;47.552;7.606;2023-06-19T19:06:46;26.30;99.90
20985;DHT22;10651;47.552;7.606;2023-06-19T19:09:12;26.30;99.90
20985;DHT22;10651;47.552;7.606;2023-06-19T19:11:38;26.20;99.90
20985;DHT22;10651;47.552;7.606;2023-06-19T19:14:04;26.20;99.90
20985;DHT22;10651;47.552;7.606;2023-06-19T19:16:29;26.20;99.90
20985;DHT22;10651;47.552;7.606;2023-06-19T19:18:55;26.30;99.90
20985;DHT22;10651;47.552;7.606;2023-06-19T19:21:21;26.30;99.90
20985;DHT22;10651;47.552;7.606;2023-06-19T19:23:49;26.40;99.90
20985;DHT22;10651;47.552;7.606;2023-06-19T19:26:15;26.40;99.90
20985;DHT22;10651;47.552;7.606;2023-06-19T19:28:44;26.50;99.90
20985;DHT22;10651;47.552;7.606;2023-06-19T19:31:10;26.50;99.90
20985;DHT22;10651;47.552;7.606;2023-06-19T19:33:38;26.40;99.90
20985;DHT22;10651;47.552;7.606;2023-06-19T19:36:04;26.40;99.90
20985;DHT22;10651;47.552;7.606;2023-06-19T19:38:32;26.30;99.90
20985;DHT22;10651;47.552;7.606;2023-06-19T19:40:58;26.30;99.90
20985;DHT22;10651;47.552;7.606;2023-06-19T19:46:15;26.30;99.90
20985;DHT22;10651;47.552;7.606;2023-06-19T19:48:55;26.30;99.90
20985;DHT22;10651;47.552;7.606;2023-06-19T19:55:02;26.20;99.90
20985;DHT22;10651;47.552;7.606;2023-06-19T19:57:32;26.10;99.90
20985;DHT22;10651;47.552;7.606;2023-06-19T19:59:58;26.10;99.90
20985;DHT22;10651;47.552;7.606;2023-06-19T20:02:45;26.00;99.90
20985;DHT22;10651;47.552;7.606;2023-06-19T20:05:11;26.00;99.90
20985;DHT22;10651;47.552;7.606;2023-06-19T20:08:02;25.90;99.90
20985;DHT22;10651;47.552;7.606;2023-06-19T20:10:39;25.90;99.90
20985;DHT22;10651;47.552;7.606;2023-06-19T20:13:14;25.80;99.90
20985;DHT22;10651;47.552;7.606;2023-06-19T20:15:50;25.80;99.90
20985;DHT22;10651;47.552;7.606;2023-06-19T20:18:16;25.80;99.90
20985;DHT22;10651;47.552;7.606;2023-06-19T20:20:41;25.70;99.90
20985;DHT22;10651;47.552;7.606;2023-06-19T20:23:10;25.70;99.90
20985;DHT22;10651;47.552;7.606;2023-06-19T20:25:39;25.60;99.90
20985;DHT22;10651;47.552;7.606;2023-06-19T20:28:24;25.60;99.90
20985;DHT22;10651;47.552;7.606;2023-06-19T20:31:05;25.50;99.90
20985;DHT22;10651;47.552;7.606;2023-06-19T20:33:36;25.50;99.90
20985;DHT22;10651;47.552;7.606;2023-06-19T20:36:02;25.50;99.90
20985;DHT22;10651;47.552;7.606;2023-06-19T20:38:47;25.40;99.90
20985;DHT22;10651;47.552;7.606;2023-06-19T20:42:16;25.40;99.90
20985;DHT22;10651;47.552;7.606;2023-06-19T20:44:51;25.40;99.90
20985;DHT22;10651;47.552;7.606;2023-06-19T20:47:23;25.30;99.90
20985;DHT22;10651;47.552;7.606;2023-06-19T20:49:57;25.30;99.90
20985;DHT22;10651;47.552;7.606;2023-06-19T20:52:26;25.30;99.90
20985;DHT22;10651;47.552;7.606;2023-06-19T20:54:51;25.40;99.90
20985;DHT22;10651;47.552;7.606;2023-06-19T20:57:17;25.30;99.90
20985;DHT22;10651;47.552;7.606;2023-06-19T20:59:43;25.30;99.90
20985;DHT22;10651;47.552;7.606;2023-06-19T21:02:12;25.30;99.90
20985;DHT22;10651;47.552;7.606;2023-06-19T21:04:39;25.30;99.90
20985;DHT22;10651;47.552;7.606;2023-06-19T21:07:05;25.30;99.90
20985;DHT22;10651;47.552;7.606;2023-06-19T21:09:31;25.40;99.90
20985;DHT22;10651;47.552;7.606;2023-06-19T21:11:56;25.40;99.90
20985;DHT22;10651;47.552;7.606;2023-06-19T21:14:22;25.40;99.90
20985;DHT22;10651;47.552;7.606;2023-06-19T21:16:48;25.40;99.90
20985;DHT22;10651;47.552;7.606;2023-06-19T21:19:13;25.40;99.90
20985;DHT22;10651;47.552;7.606;2023-06-19T21:21:39;25.30;99.90
20985;DHT22;10651;47.552;7.606;2023-06-19T21:24:05;25.20;99.90
20985;DHT22;10651;47.552;7.606;2023-06-19T21:26:30;25.30;99.90
20985;DHT22;10651;47.552;7.606;2023-06-19T21:28:56;25.20;99.90
20985;DHT22;10651;47.552;7.606;2023-06-19T21:31:22;25.20;99.90
20985;DHT22;10651;47.552;7.606;2023-06-19T21:33:54;25.20;99.90
20985;DHT22;10651;47.552;7.606;2023-06-19T21:36:22;25.20;99.90
20985;DHT22;10651;47.552;7.606;2023-06-19T21:38:47;25.20;99.90
20985;DHT22;10651;47.552;7.606;2023-06-19T21:41:13;25.30;99.90
20985;DHT22;10651;47.552;7.606;2023-06-19T21:43:44;25.30;99.90
20985;DHT22;10651;47.552;7.606;2023-06-19T21:46:13;25.30;99.90
20985;DHT22;10651;47.552;7.606;2023-06-19T21:48:39;25.20;99.90
20985;DHT22;10651;47.552;7.606;2023-06-19T21:51:04;25.30;99.90
20985;DHT22;10651;47.552;7.606;2023-06-19T21:53:30;25.30;99.90
20985;DHT22;10651;47.552;7.606;2023-06-19T21:55:56;25.30;99.90
20985;DHT22;10651;47.552;7.606;2023-06-19T21:58:32;25.30;99.90
20985;DHT22;10651;47.552;7.606;2023-06-19T22:01:04;25.20;99.90
20985;DHT22;10651;47.552;7.606;2023-06-19T22:03:38;25.20;99.90
20985;DHT22;10651;47.552;7.606;2023-06-19T22:06:04;25.20;99.90
20985;DHT22;10651;47.552;7.606;2023-06-19T22:08:29;25.20;99.90
20985;DHT22;10651;47.552;7.606;2023-06-19T22:10:58;25.20;99.90
20985;DHT22;10651;47.552;7.606;2023-06-19T22:13:23;25.20;99.90
20985;DHT22;10651;47.552;7.606;2023-06-19T22:15:50;25.20;99.90
20985;DHT22;10651;47.552;7.606;2023-06-19T22:18:16;25.20;99.90
20985;DHT22;10651;47.552;7.606;2023-06-19T22:20:43;25.20;99.90
20985;DHT22;10651;47.552;7.606;2023-06-19T22:23:09;25.10;99.90
20985;DHT22;10651;47.552;7.606;2023-06-19T22:25:35;25.10;99.90
20985;DHT22;10651;47.552;7.606;2023-06-19T22:28:00;24.90;99.90
20985;DHT22;10651;47.552;7.606;2023-06-19T22:30:26;24.40;99.90
20985;DHT22;10651;47.552;7.606;2023-06-19T22:32:52;24.30;99.90
20985;DHT22;10651;47.552;7.606;2023-06-19T22:35:17;24.20;99.90
20985;DHT22;10651;47.552;7.606;2023-06-19T22:37:43;24.20;99.90
20985;DHT22;10651;47.552;7.606;2023-06-19T22:40:09;23.90;99.90
20985;DHT22;10651;47.552;7.606;2023-06-19T22:42:35;23.70;99.90
20985;DHT22;10651;47.552;7.606;2023-06-19T22:45:07;23.60;99.90
20985;DHT22;10651;47.552;7.606;2023-06-19T22:47:34;23.60;99.90
20985;DHT22;10651;47.552;7.606;2023-06-19T22:50:06;23.40;99.90
20985;DHT22;10651;47.552;7.606;2023-06-19T22:52:41;23.40;99.90
20985;DHT22;10651;47.552;7.606;2023-06-19T22:55:20;23.50;99.90
20985;DHT22;10651;47.552;7.606;2023-06-19T22:57:46;23.40;99.90
20985;DHT22;10651;47.552;7.606;2023-06-19T23:00:13;23.30;99.90
20985;DHT22;10651;47.552;7.606;2023-06-19T23:02:39;23.30;99.90
20985;DHT22;10651;47.552;7.606;2023-06-19T23:05:06;23.30;99.90
20985;DHT22;10651;47.552;7.606;2023-06-19T23:07:32;23.20;99.90
20985;DHT22;10651;47.552;7.606;2023-06-19T23:09:59;23.10;99.90
20985;DHT22;10651;47.552;7.606;2023-06-19T23:12:25;23.00;99.90
20985;DHT22;10651;47.552;7.606;2023-06-19T23:14:50;22.80;99.90
20985;DHT22;10651;47.552;7.606;2023-06-19T23:17:19;22.80;99.90
20985;DHT22;10651;47.552;7.606;2023-06-19T23:19:47;22.80;99.90
20985;DHT22;10651;47.552;7.606;2023-06-19T23:22:22;22.60;99.90
20985;DHT22;10651;47.552;7.606;2023-06-19T23:24:53;22.60;99.90
20985;DHT22;10651;47.552;7.606;2023-06-19T23:27:19;22.60;99.90
20985;DHT22;10651;47.552;7.606;2023-06-19T23:29:45;22.60;99.90
20985;DHT22;10651;47.552;7.606;2023-06-19T23:32:11;22.60;99.90
20985;DHT22;10651;47.552;7.606;2023-06-19T23:34:36;22.50;99.90
20985;DHT22;10651;47.552;7.606;2023-06-19T23:37:02;22.40;99.90
20985;DHT22;10651;47.552;7.606;2023-06-19T23:42:08;22.30;99.90
20985;DHT22;10651;47.552;7.606;2023-06-19T23:44:34;22.40;99.90
20985;DHT22;10651;47.552;7.606;2023-06-19T23:47:00;22.30;99.90
20985;DHT22;10651;47.552;7.606;2023-06-19T23:49:26;22.30;99.90
20985;DHT22;10651;47.552;7.606;2023-06-19T23:51:51;22.30;99.90
20985;DHT22;10651;47.552;7.606;2023-06-19T23:54:17;22.20;99.90
20985;DHT22;10651;47.552;7.606;2023-06-19T23:56:43;22.10;99.90
20985;DHT22;10651;47.552;7.606;2023-06-19T23:59:08;22.00;99.90
